sensor_id;sensor_type;location;lat;lon;timestamp;temperature;humidity
59651;DHT22;45954;49.768;8.636;2023-03-16T00:02:19;3.60;99.90
59651;DHT22;45954;49.768;8.636;2023-03-16T00:04:44;3.60;99.90
59651;DHT22;45954;49.768;8.636;2023-03-16T00:07:13;3.60;99.90
59651;DHT22;45954;49.768;8.636;2023-03-16T00:09:40;3.60;99.90
59651;DHT22;45954;49.768;8.636;2023-03-16T00:12:11;3.60;99.90
59651;DHT22;45954;49.768;8.636;2023-03-16T00:14:43;3.70;99.90
59651;DHT22;45954;49.768;8.636;2023-03-16T00:17:13;3.70;99.90
59651;DHT22;45954;49.768;8.636;2023-03-16T00:19:49;3.60;99.90
59651;DHT22;45954;49.768;8.636;2023-03-16T00:22:29;3.60;99.90
59651;DHT22;45954;49.768;8.636;2023-03-16T00:24:55;3.60;99.90
59651;DHT22;45954;49.768;8.636;2023-03-16T00:27:24;3.60;99.90
59651;DHT22;45954;49.768;8.636;2023-03-16T00:29:52;3.40;99.90
59651;DHT22;45954;49.768;8.636;2023-03-16T00:32:24;3.40;99.90
59651;DHT22;45954;49.768;8.636;2023-03-16T00:35:08;3.40;99.90
59651;DHT22;45954;49.768;8.636;2023-03-16T00:37:34;3.50;99.90
59651;DHT22;45954;49.768;8.636;2023-03-16T00:40:01;3.50;99.90
59651;DHT22;45954;49.768;8.636;2023-03-16T00:42:29;3.60;99.90
59651;DHT22;45954;49.768;8.636;2023-03-16T00:44:57;3.60;99.90
59651;DHT22;45954;49.768;8.636;2023-03-16T00:47:28;3.40;99.90
59651;DHT22;45954;49.768;8.636;2023-03-16T00:49:56;3.30;99.90
59651;DHT22;45954;49.768;8.636;2023-03-16T00:52:22;3.40;99.90
59651;DHT22;45954;49.768;8.636;2023-03-16T00:54:49;3.50;99.90
59651;DHT22;45954;49.768;8.636;2023-03-16T00:57:18;3.60;99.90
59651;DHT22;45954;49.768;8.636;2023-03-16T00:59:47;3.70;99.90
59651;DHT22;45954;49.768;8.636;2023-03-16T01:02:15;3.80;99.90
59651;DHT22;45954;49.768;8.636;2023-03-16T01:04:42;3.80;99.90
59651;DHT22;45954;49.768;8.636;2023-03-16T01:07:11;3.80;99.90
59651;DHT22;45954;49.768;8.636;2023-03-16T01:09:40;3.70;99.90
59651;DHT22;45954;49.768;8.636;2023-03-16T01:12:12;3.70;99.90
59651;DHT22;45954;49.768;8.636;2023-03-16T01:14:39;3.60;99.90
59651;DHT22;45954;49.768;8.636;2023-03-16T01:17:07;3.50;99.90
59651;DHT22;45954;49.768;8.636;2023-03-16T01:19:34;3.50;99.90
59651;DHT22;45954;49.768;8.636;2023-03-16T01:22:03;3.50;99.90
59651;DHT22;45954;49.768;8.636;2023-03-16T01:24:30;3.50;99.90
59651;DHT22;45954;49.768;8.636;2023-03-16T01:26:56;3.50;99.90
59651;DHT22;45954;49.768;8.636;2023-03-16T01:29:22;3.50;99.90
59651;DHT22;45954;49.768;8.636;2023-03-16T01:31:49;3.60;99.90
59651;DHT22;45954;49.768;8.636;2023-03-16T01:34:16;3.60;99.90
59651;DHT22;45954;49.768;8.636;2023-03-16T01:36:47;3.60;99.90
59651;DHT22;45954;49.768;8.636;2023-03-16T01:39:15;3.50;99.90
59651;DHT22;45954;49.768;8.636;2023-03-16T01:41:43;3.40;99.90
59651;DHT22;45954;49.768;8.636;2023-03-16T01:44:16;3.40;99.90
59651;DHT22;45954;49.768;8.636;2023-03-16T01:46:44;3.50;99.90
59651;DHT22;45954;49.768;8.636;2023-03-16T01:49:17;3.50;99.90
59651;DHT22;45954;49.768;8.636;2023-03-16T01:51:53;3.50;99.90
59651;DHT22;45954;49.768;8.636;2023-03-16T01:54:27;3.40;99.90
59651;DHT22;45954;49.768;8.636;2023-03-16T01:59:52;3.40;99.90
59651;DHT22;45954;49.768;8.636;2023-03-16T02:02:29;3.40;99.90
59651;DHT22;45954;49.768;8.636;2023-03-16T02:05:07;3.30;99.90
59651;DHT22;45954;49.768;8.636;2023-03-16T02:07:48;3.40;99.90
59651;DHT22;45954;49.768;8.636;2023-03-16T02:10:18;3.40;99.90
59651;DHT22;45954;49.768;8.636;2023-03-16T02:12:45;3.40;99.90
59651;DHT22;45954;49.768;8.636;2023-03-16T02:15:13;3.20;99.90
59651;DHT22;45954;49.768;8.636;2023-03-16T02:17:42;3.10;99.90
59651;DHT22;45954;49.768;8.636;2023-03-16T02:23:24;2.90;99.90
59651;DHT22;45954;49.768;8.636;2023-03-16T02:29:26;2.60;99.90
59651;DHT22;45954;49.768;8.636;2023-03-16T02:32:05;2.20;99.90
59651;DHT22;45954;49.768;8.636;2023-03-16T02:34:31;2.50;99.90
59651;DHT22;45954;49.768;8.636;2023-03-16T02:36:57;2.70;99.90
59651;DHT22;45954;49.768;8.636;2023-03-16T02:39:24;2.50;99.90
59651;DHT22;45954;49.768;8.636;2023-03-16T02:41:50;2.40;99.90
59651;DHT22;45954;49.768;8.636;2023-03-16T02:44:22;2.30;99.90
59651;DHT22;45954;49.768;8.636;2023-03-16T02:46:53;2.50;99.90
59651;DHT22;45954;49.768;8.636;2023-03-16T02:49:26;2.30;99.90
59651;DHT22;45954;49.768;8.636;2023-03-16T02:51:57;2.30;99.90
59651;DHT22;45954;49.768;8.636;2023-03-16T02:54:23;2.40;99.90
59651;DHT22;45954;49.768;8.636;2023-03-16T02:56:50;2.40;99.90
59651;DHT22;45954;49.768;8.636;2023-03-16T02:59:16;2.60;99.90
59651;DHT22;45954;49.768;8.636;2023-03-16T03:01:42;2.60;99.90
59651;DHT22;45954;49.768;8.636;2023-03-16T03:04:08;2.50;99.90
59651;DHT22;45954;49.768;8.636;2023-03-16T03:06:34;2.40;99.90
59651;DHT22;45954;49.768;8.636;2023-03-16T03:09:00;2.40;99.90
59651;DHT22;45954;49.768;8.636;2023-03-16T03:11:27;2.50;99.90
59651;DHT22;45954;49.768;8.636;2023-03-16T03:13:53;2.40;99.90
59651;DHT22;45954;49.768;8.636;2023-03-16T03:16:20;2.40;99.90
59651;DHT22;45954;49.768;8.636;2023-03-16T03:18:46;2.50;99.90
59651;DHT22;45954;49.768;8.636;2023-03-16T03:21:13;2.40;99.90
59651;DHT22;45954;49.768;8.636;2023-03-16T03:23:39;2.40;99.90
59651;DHT22;45954;49.768;8.636;2023-03-16T03:26:05;2.40;99.90
59651;DHT22;45954;49.768;8.636;2023-03-16T03:28:31;2.50;99.90
59651;DHT22;45954;49.768;8.636;2023-03-16T03:30:59;2.40;99.90
59651;DHT22;45954;49.768;8.636;2023-03-16T03:33:26;2.40;99.90
59651;DHT22;45954;49.768;8.636;2023-03-16T03:35:57;2.20;99.90
59651;DHT22;45954;49.768;8.636;2023-03-16T03:38:24;2.30;99.90
59651;DHT22;45954;49.768;8.636;2023-03-16T03:40:52;2.30;99.90
59651;DHT22;45954;49.768;8.636;2023-03-16T03:43:20;2.40;99.90
59651;DHT22;45954;49.768;8.636;2023-03-16T03:45:46;2.50;99.90
59651;DHT22;45954;49.768;8.636;2023-03-16T03:48:12;2.50;99.90
59651;DHT22;45954;49.768;8.636;2023-03-16T03:50:38;2.40;99.90
59651;DHT22;45954;49.768;8.636;2023-03-16T03:53:05;2.40;99.90
59651;DHT22;45954;49.768;8.636;2023-03-16T03:55:31;2.40;99.90
59651;DHT22;45954;49.768;8.636;2023-03-16T03:57:57;2.20;99.90
59651;DHT22;45954;49.768;8.636;2023-03-16T04:00:23;1.90;99.90
59651;DHT22;45954;49.768;8.636;2023-03-16T04:02:49;1.80;99.90
59651;DHT22;45954;49.768;8.636;2023-03-16T04:05:16;1.90;99.90
59651;DHT22;45954;49.768;8.636;2023-03-16T04:07:41;1.40;99.90
59651;DHT22;45954;49.768;8.636;2023-03-16T04:10:08;1.60;99.90
59651;DHT22;45954;49.768;8.636;2023-03-16T04:12:34;1.60;99.90
59651;DHT22;45954;49.768;8.636;2023-03-16T04:15:00;1.70;99.90
59651;DHT22;45954;49.768;8.636;2023-03-16T04:17:26;1.80;99.90
59651;DHT22;45954;49.768;8.636;2023-03-16T04:19:52;1.90;99.90
59651;DHT22;45954;49.768;8.636;2023-03-16T04:22:18;1.90;99.90
59651;DHT22;45954;49.768;8.636;2023-03-16T04:24:44;2.00;99.90
59651;DHT22;45954;49.768;8.636;2023-03-16T04:27:10;2.10;99.90
59651;DHT22;45954;49.768;8.636;2023-03-16T04:29:37;2.10;99.90
59651;DHT22;45954;49.768;8.636;2023-03-16T04:32:05;2.10;99.90
59651;DHT22;45954;49.768;8.636;2023-03-16T04:34:31;2.20;99.90
59651;DHT22;45954;49.768;8.636;2023-03-16T04:36:57;2.20;99.90
59651;DHT22;45954;49.768;8.636;2023-03-16T04:39:23;2.20;99.90
59651;DHT22;45954;49.768;8.636;2023-03-16T04:41:49;2.30;99.90
59651;DHT22;45954;49.768;8.636;2023-03-16T04:44:16;2.30;99.90
59651;DHT22;45954;49.768;8.636;2023-03-16T04:46:42;2.20;99.90
59651;DHT22;45954;49.768;8.636;2023-03-16T04:49:08;2.00;99.90
59651;DHT22;45954;49.768;8.636;2023-03-16T04:51:36;2.10;99.90
59651;DHT22;45954;49.768;8.636;2023-03-16T04:54:03;2.20;99.90
59651;DHT22;45954;49.768;8.636;2023-03-16T04:56:29;2.20;99.90
59651;DHT22;45954;49.768;8.636;2023-03-16T04:58:55;2.20;99.90
59651;DHT22;45954;49.768;8.636;2023-03-16T05:01:24;2.20;99.90
59651;DHT22;45954;49.768;8.636;2023-03-16T05:03:50;2.10;99.90
59651;DHT22;45954;49.768;8.636;2023-03-16T05:06:17;1.90;99.90
59651;DHT22;45954;49.768;8.636;2023-03-16T05:08:43;1.90;99.90
59651;DHT22;45954;49.768;8.636;2023-03-16T05:11:09;2.10;99.90
59651;DHT22;45954;49.768;8.636;2023-03-16T05:13:35;2.10;99.90
59651;DHT22;45954;49.768;8.636;2023-03-16T05:16:01;2.10;99.90
59651;DHT22;45954;49.768;8.636;2023-03-16T05:18:27;2.10;99.90
59651;DHT22;45954;49.768;8.636;2023-03-16T05:20:54;1.90;99.90
59651;DHT22;45954;49.768;8.636;2023-03-16T05:23:21;2.00;99.90
59651;DHT22;45954;49.768;8.636;2023-03-16T05:25:48;2.00;99.90
59651;DHT22;45954;49.768;8.636;2023-03-16T05:28:16;2.10;99.90
59651;DHT22;45954;49.768;8.636;2023-03-16T05:30:43;2.20;99.90
59651;DHT22;45954;49.768;8.636;2023-03-16T05:33:09;2.00;99.90
59651;DHT22;45954;49.768;8.636;2023-03-16T05:35:35;1.70;99.90
59651;DHT22;45954;49.768;8.636;2023-03-16T05:38:03;1.80;99.90
59651;DHT22;45954;49.768;8.636;2023-03-16T05:40:29;2.00;99.90
59651;DHT22;45954;49.768;8.636;2023-03-16T05:42:56;2.00;99.90
59651;DHT22;45954;49.768;8.636;2023-03-16T05:45:25;1.70;99.90
59651;DHT22;45954;49.768;8.636;2023-03-16T05:47:51;1.90;99.90
59651;DHT22;45954;49.768;8.636;2023-03-16T05:50:18;2.00;99.90
59651;DHT22;45954;49.768;8.636;2023-03-16T05:52:44;2.10;99.90
59651;DHT22;45954;49.768;8.636;2023-03-16T05:55:13;2.00;99.90
59651;DHT22;45954;49.768;8.636;2023-03-16T05:57:41;2.10;99.90
59651;DHT22;45954;49.768;8.636;2023-03-16T06:00:11;2.10;99.90
59651;DHT22;45954;49.768;8.636;2023-03-16T06:02:42;2.20;99.90
59651;DHT22;45954;49.768;8.636;2023-03-16T06:05:10;2.20;99.90
59651;DHT22;45954;49.768;8.636;2023-03-16T06:07:36;2.30;99.90
59651;DHT22;45954;49.768;8.636;2023-03-16T06:10:03;2.40;99.90
59651;DHT22;45954;49.768;8.636;2023-03-16T06:12:30;2.30;99.90
59651;DHT22;45954;49.768;8.636;2023-03-16T06:14:56;2.40;99.90
59651;DHT22;45954;49.768;8.636;2023-03-16T06:17:22;2.40;99.90
59651;DHT22;45954;49.768;8.636;2023-03-16T06:19:47;2.40;99.90
59651;DHT22;45954;49.768;8.636;2023-03-16T06:22:14;2.30;99.90
59651;DHT22;45954;49.768;8.636;2023-03-16T06:24:40;2.20;99.90
59651;DHT22;45954;49.768;8.636;2023-03-16T06:27:06;2.10;99.90
59651;DHT22;45954;49.768;8.636;2023-03-16T06:29:32;2.20;99.90
59651;DHT22;45954;49.768;8.636;2023-03-16T06:31:57;2.40;99.90
59651;DHT22;45954;49.768;8.636;2023-03-16T06:34:23;2.50;99.90
59651;DHT22;45954;49.768;8.636;2023-03-16T06:36:49;2.70;99.90
59651;DHT22;45954;49.768;8.636;2023-03-16T06:39:16;2.70;99.90
59651;DHT22;45954;49.768;8.636;2023-03-16T06:41:42;2.90;99.90
59651;DHT22;45954;49.768;8.636;2023-03-16T06:44:09;2.90;99.90
59651;DHT22;45954;49.768;8.636;2023-03-16T06:46:36;3.00;99.90
59651;DHT22;45954;49.768;8.636;2023-03-16T06:49:03;3.10;99.90
59651;DHT22;45954;49.768;8.636;2023-03-16T06:51:30;3.20;99.90
59651;DHT22;45954;49.768;8.636;2023-03-16T06:53:56;3.10;99.90
59651;DHT22;45954;49.768;8.636;2023-03-16T06:56:22;3.10;99.90
59651;DHT22;45954;49.768;8.636;2023-03-16T06:58:48;3.20;99.90
59651;DHT22;45954;49.768;8.636;2023-03-16T07:01:14;3.40;99.90
59651;DHT22;45954;49.768;8.636;2023-03-16T07:03:40;3.50;99.90
59651;DHT22;45954;49.768;8.636;2023-03-16T07:06:06;3.70;99.90
59651;DHT22;45954;49.768;8.636;2023-03-16T07:08:33;3.80;99.90
59651;DHT22;45954;49.768;8.636;2023-03-16T07:10:59;3.90;99.90
59651;DHT22;45954;49.768;8.636;2023-03-16T07:13:26;4.00;99.90
59651;DHT22;45954;49.768;8.636;2023-03-16T07:15:52;4.10;99.90
59651;DHT22;45954;49.768;8.636;2023-03-16T07:18:19;4.20;99.90
59651;DHT22;45954;49.768;8.636;2023-03-16T07:20:46;4.30;99.90
59651;DHT22;45954;49.768;8.636;2023-03-16T07:23:12;4.40;99.90
59651;DHT22;45954;49.768;8.636;2023-03-16T07:25:38;4.40;99.90
59651;DHT22;45954;49.768;8.636;2023-03-16T07:28:04;4.60;99.90
59651;DHT22;45954;49.768;8.636;2023-03-16T07:30:30;4.90;99.90
59651;DHT22;45954;49.768;8.636;2023-03-16T07:32:56;4.90;99.90
59651;DHT22;45954;49.768;8.636;2023-03-16T07:35:22;4.80;99.90
59651;DHT22;45954;49.768;8.636;2023-03-16T07:37:48;4.90;99.90
59651;DHT22;45954;49.768;8.636;2023-03-16T07:40:15;4.80;99.90
59651;DHT22;45954;49.768;8.636;2023-03-16T07:42:41;4.80;99.90
59651;DHT22;45954;49.768;8.636;2023-03-16T07:45:08;4.70;99.90
59651;DHT22;45954;49.768;8.636;2023-03-16T07:47:34;4.70;99.90
59651;DHT22;45954;49.768;8.636;2023-03-16T07:50:01;4.60;99.90
59651;DHT22;45954;49.768;8.636;2023-03-16T07:52:27;4.70;99.90
59651;DHT22;45954;49.768;8.636;2023-03-16T07:54:53;4.70;99.90
59651;DHT22;45954;49.768;8.636;2023-03-16T07:57:19;4.80;99.90
59651;DHT22;45954;49.768;8.636;2023-03-16T07:59:46;5.10;99.90
59651;DHT22;45954;49.768;8.636;2023-03-16T08:02:14;5.10;99.90
59651;DHT22;45954;49.768;8.636;2023-03-16T08:04:42;5.20;99.90
59651;DHT22;45954;49.768;8.636;2023-03-16T08:07:13;5.20;99.90
59651;DHT22;45954;49.768;8.636;2023-03-16T08:09:40;5.20;99.90
59651;DHT22;45954;49.768;8.636;2023-03-16T08:12:08;5.20;99.90
59651;DHT22;45954;49.768;8.636;2023-03-16T08:14:34;5.40;99.90
59651;DHT22;45954;49.768;8.636;2023-03-16T08:17:02;5.80;99.90
59651;DHT22;45954;49.768;8.636;2023-03-16T08:19:30;5.50;99.90
59651;DHT22;45954;49.768;8.636;2023-03-16T08:21:58;5.50;99.90
59651;DHT22;45954;49.768;8.636;2023-03-16T08:24:27;5.70;99.90
59651;DHT22;45954;49.768;8.636;2023-03-16T08:26:54;5.90;99.90
59651;DHT22;45954;49.768;8.636;2023-03-16T08:29:22;6.10;99.90
59651;DHT22;45954;49.768;8.636;2023-03-16T08:31:51;6.50;99.90
59651;DHT22;45954;49.768;8.636;2023-03-16T08:34:18;6.70;99.90
59651;DHT22;45954;49.768;8.636;2023-03-16T08:36:44;6.50;99.90
59651;DHT22;45954;49.768;8.636;2023-03-16T08:39:10;6.50;99.90
59651;DHT22;45954;49.768;8.636;2023-03-16T08:41:36;6.30;99.90
59651;DHT22;45954;49.768;8.636;2023-03-16T08:44:02;6.30;99.90
59651;DHT22;45954;49.768;8.636;2023-03-16T08:46:28;6.40;99.90
59651;DHT22;45954;49.768;8.636;2023-03-16T08:48:55;6.60;99.90
59651;DHT22;45954;49.768;8.636;2023-03-16T08:51:21;6.70;99.90
59651;DHT22;45954;49.768;8.636;2023-03-16T08:53:46;7.00;99.90
59651;DHT22;45954;49.768;8.636;2023-03-16T08:56:13;7.00;99.90
59651;DHT22;45954;49.768;8.636;2023-03-16T08:58:40;7.00;99.90
59651;DHT22;45954;49.768;8.636;2023-03-16T09:01:11;7.00;99.90
59651;DHT22;45954;49.768;8.636;2023-03-16T09:03:38;6.80;99.90
59651;DHT22;45954;49.768;8.636;2023-03-16T09:06:12;6.90;99.90
59651;DHT22;45954;49.768;8.636;2023-03-16T09:08:40;7.20;99.90
59651;DHT22;45954;49.768;8.636;2023-03-16T09:11:09;7.10;99.90
59651;DHT22;45954;49.768;8.636;2023-03-16T09:13:40;7.20;99.90
59651;DHT22;45954;49.768;8.636;2023-03-16T09:16:07;7.40;99.90
59651;DHT22;45954;49.768;8.636;2023-03-16T09:18:34;7.40;99.90
59651;DHT22;45954;49.768;8.636;2023-03-16T09:21:05;7.30;99.90
59651;DHT22;45954;49.768;8.636;2023-03-16T09:23:33;7.50;99.90
59651;DHT22;45954;49.768;8.636;2023-03-16T09:26:04;7.80;99.90
59651;DHT22;45954;49.768;8.636;2023-03-16T09:28:34;8.10;99.90
59651;DHT22;45954;49.768;8.636;2023-03-16T09:31:01;8.10;99.90
59651;DHT22;45954;49.768;8.636;2023-03-16T09:33:28;8.00;99.90
59651;DHT22;45954;49.768;8.636;2023-03-16T09:35:57;8.10;99.90
59651;DHT22;45954;49.768;8.636;2023-03-16T09:38:24;8.00;99.90
59651;DHT22;45954;49.768;8.636;2023-03-16T09:40:58;8.20;99.90
59651;DHT22;45954;49.768;8.636;2023-03-16T09:46:41;8.40;99.90
59651;DHT22;45954;49.768;8.636;2023-03-16T09:49:14;8.40;99.90
59651;DHT22;45954;49.768;8.636;2023-03-16T09:54:52;9.00;99.90
59651;DHT22;45954;49.768;8.636;2023-03-16T09:57:27;8.70;99.60
59651;DHT22;45954;49.768;8.636;2023-03-16T10:00:00;9.00;99.90
59651;DHT22;45954;49.768;8.636;2023-03-16T10:05:23;9.30;99.60
59651;DHT22;45954;49.768;8.636;2023-03-16T10:08:22;9.70;99.30
59651;DHT22;45954;49.768;8.636;2023-03-16T10:16:50;9.30;98.60
59651;DHT22;45954;49.768;8.636;2023-03-16T10:19:30;9.30;98.90
59651;DHT22;45954;49.768;8.636;2023-03-16T10:22:17;9.30;99.70
59651;DHT22;45954;49.768;8.636;2023-03-16T10:27:49;9.80;98.50
59651;DHT22;45954;49.768;8.636;2023-03-16T10:30:28;9.70;99.10
59651;DHT22;45954;49.768;8.636;2023-03-16T10:36:17;10.10;99.10
59651;DHT22;45954;49.768;8.636;2023-03-16T10:38:53;10.70;98.20
59651;DHT22;45954;49.768;8.636;2023-03-16T10:41:40;10.60;98.10
59651;DHT22;45954;49.768;8.636;2023-03-16T10:44:12;10.80;97.50
59651;DHT22;45954;49.768;8.636;2023-03-16T10:46:45;11.10;96.80
59651;DHT22;45954;49.768;8.636;2023-03-16T10:49:26;11.30;96.50
59651;DHT22;45954;49.768;8.636;2023-03-16T10:52:33;11.30;95.30
59651;DHT22;45954;49.768;8.636;2023-03-16T10:55:16;11.30;96.40
59651;DHT22;45954;49.768;8.636;2023-03-16T10:57:54;11.90;95.10
59651;DHT22;45954;49.768;8.636;2023-03-16T11:00:32;11.90;93.70
59651;DHT22;45954;49.768;8.636;2023-03-16T11:03:36;12.10;93.80
59651;DHT22;45954;49.768;8.636;2023-03-16T11:06:21;12.30;93.90
59651;DHT22;45954;49.768;8.636;2023-03-16T11:09:03;11.70;93.20
59651;DHT22;45954;49.768;8.636;2023-03-16T11:11:34;11.30;93.40
59651;DHT22;45954;49.768;8.636;2023-03-16T11:14:08;11.60;93.40
59651;DHT22;45954;49.768;8.636;2023-03-16T11:16:40;11.90;93.60
59651;DHT22;45954;49.768;8.636;2023-03-16T11:19:23;12.20;93.10
59651;DHT22;45954;49.768;8.636;2023-03-16T11:22:20;12.60;92.40
59651;DHT22;45954;49.768;8.636;2023-03-16T11:30:33;12.60;91.30
59651;DHT22;45954;49.768;8.636;2023-03-16T11:33:08;12.90;91.60
59651;DHT22;45954;49.768;8.636;2023-03-16T11:35:46;13.10;91.00
59651;DHT22;45954;49.768;8.636;2023-03-16T11:38:30;13.30;88.50
59651;DHT22;45954;49.768;8.636;2023-03-16T11:41:02;13.40;91.20
59651;DHT22;45954;49.768;8.636;2023-03-16T11:46:21;12.30;90.90
59651;DHT22;45954;49.768;8.636;2023-03-16T11:52:23;12.60;90.90
59651;DHT22;45954;49.768;8.636;2023-03-16T11:55:26;12.40;91.10
59651;DHT22;45954;49.768;8.636;2023-03-16T11:58:44;12.30;91.00
59651;DHT22;45954;49.768;8.636;2023-03-16T12:04:21;12.90;91.40
59651;DHT22;45954;49.768;8.636;2023-03-16T12:07:16;13.10;90.80
59651;DHT22;45954;49.768;8.636;2023-03-16T12:13:02;13.60;88.40
59651;DHT22;45954;49.768;8.636;2023-03-16T12:15:42;13.60;88.60
59651;DHT22;45954;49.768;8.636;2023-03-16T12:18:23;12.80;87.90
59651;DHT22;45954;49.768;8.636;2023-03-16T12:20:59;12.70;89.30
59651;DHT22;45954;49.768;8.636;2023-03-16T12:24:04;12.50;89.00
59651;DHT22;45954;49.768;8.636;2023-03-16T12:26:34;12.20;89.40
59651;DHT22;45954;49.768;8.636;2023-03-16T12:29:33;12.50;91.10
59651;DHT22;45954;49.768;8.636;2023-03-16T12:32:18;13.00;90.50
59651;DHT22;45954;49.768;8.636;2023-03-16T12:34:58;13.40;89.50
59651;DHT22;45954;49.768;8.636;2023-03-16T12:41:33;13.70;87.40
59651;DHT22;45954;49.768;8.636;2023-03-16T12:44:53;13.40;84.60
59651;DHT22;45954;49.768;8.636;2023-03-16T12:48:02;13.70;85.30
59651;DHT22;45954;49.768;8.636;2023-03-16T12:51:01;13.50;87.40
59651;DHT22;45954;49.768;8.636;2023-03-16T12:56:12;14.60;83.10
59651;DHT22;45954;49.768;8.636;2023-03-16T12:58:50;14.90;80.20
59651;DHT22;45954;49.768;8.636;2023-03-16T13:01:26;14.80;79.70
59651;DHT22;45954;49.768;8.636;2023-03-16T13:04:17;14.50;80.60
59651;DHT22;45954;49.768;8.636;2023-03-16T13:07:01;14.60;80.90
59651;DHT22;45954;49.768;8.636;2023-03-16T13:09:30;14.50;80.80
59651;DHT22;45954;49.768;8.636;2023-03-16T13:11:59;14.60;81.30
59651;DHT22;45954;49.768;8.636;2023-03-16T13:14:39;14.60;80.60
59651;DHT22;45954;49.768;8.636;2023-03-16T13:19:44;15.20;76.50
59651;DHT22;45954;49.768;8.636;2023-03-16T13:22:24;15.10;76.20
59651;DHT22;45954;49.768;8.636;2023-03-16T13:27:55;15.30;74.90
59651;DHT22;45954;49.768;8.636;2023-03-16T13:30:26;15.30;77.90
59651;DHT22;45954;49.768;8.636;2023-03-16T13:33:43;16.10;75.50
59651;DHT22;45954;49.768;8.636;2023-03-16T13:35:56;16.80;75.40
59651;DHT22;45954;49.768;8.636;2023-03-16T13:38:26;17.10;72.40
59651;DHT22;45954;49.768;8.636;2023-03-16T13:41:01;17.20;71.60
59651;DHT22;45954;49.768;8.636;2023-03-16T13:43:30;17.40;69.00
59651;DHT22;45954;49.768;8.636;2023-03-16T13:45:58;17.50;71.00
59651;DHT22;45954;49.768;8.636;2023-03-16T13:48:24;17.20;67.80
59651;DHT22;45954;49.768;8.636;2023-03-16T13:50:55;17.20;69.80
59651;DHT22;45954;49.768;8.636;2023-03-16T13:53:24;17.30;69.10
59651;DHT22;45954;49.768;8.636;2023-03-16T13:55:55;16.80;69.80
59651;DHT22;45954;49.768;8.636;2023-03-16T13:58:35;16.90;68.00
59651;DHT22;45954;49.768;8.636;2023-03-16T14:01:23;16.80;67.60
59651;DHT22;45954;49.768;8.636;2023-03-16T14:03:51;17.30;66.70
59651;DHT22;45954;49.768;8.636;2023-03-16T14:06:29;16.40;66.60
59651;DHT22;45954;49.768;8.636;2023-03-16T14:08:59;15.60;67.50
59651;DHT22;45954;49.768;8.636;2023-03-16T14:11:28;16.10;69.10
59651;DHT22;45954;49.768;8.636;2023-03-16T14:13:56;16.30;67.90
59651;DHT22;45954;49.768;8.636;2023-03-16T14:16:26;15.90;66.30
59651;DHT22;45954;49.768;8.636;2023-03-16T14:19:01;15.70;66.90
59651;DHT22;45954;49.768;8.636;2023-03-16T14:21:30;15.70;67.50
59651;DHT22;45954;49.768;8.636;2023-03-16T14:24:02;15.20;67.60
59651;DHT22;45954;49.768;8.636;2023-03-16T14:26:43;15.40;70.20
59651;DHT22;45954;49.768;8.636;2023-03-16T14:29:25;15.10;69.20
59651;DHT22;45954;49.768;8.636;2023-03-16T14:31:53;15.40;69.90
59651;DHT22;45954;49.768;8.636;2023-03-16T14:34:25;15.10;69.00
59651;DHT22;45954;49.768;8.636;2023-03-16T14:36:51;15.20;69.70
59651;DHT22;45954;49.768;8.636;2023-03-16T14:39:21;15.40;71.00
59651;DHT22;45954;49.768;8.636;2023-03-16T14:41:52;15.70;68.80
59651;DHT22;45954;49.768;8.636;2023-03-16T14:44:24;15.50;68.90
59651;DHT22;45954;49.768;8.636;2023-03-16T14:46:56;15.60;69.50
59651;DHT22;45954;49.768;8.636;2023-03-16T14:49:36;15.10;69.00
59651;DHT22;45954;49.768;8.636;2023-03-16T14:52:20;15.10;71.30
59651;DHT22;45954;49.768;8.636;2023-03-16T14:54:52;15.50;70.50
59651;DHT22;45954;49.768;8.636;2023-03-16T14:57:20;15.70;69.30
59651;DHT22;45954;49.768;8.636;2023-03-16T14:59:46;15.90;70.00
59651;DHT22;45954;49.768;8.636;2023-03-16T15:02:37;15.70;69.50
59651;DHT22;45954;49.768;8.636;2023-03-16T15:05:03;15.60;70.20
59651;DHT22;45954;49.768;8.636;2023-03-16T15:07:33;15.50;73.20
59651;DHT22;45954;49.768;8.636;2023-03-16T15:10:23;16.10;71.10
59651;DHT22;45954;49.768;8.636;2023-03-16T15:12:52;16.40;70.10
59651;DHT22;45954;49.768;8.636;2023-03-16T15:15:29;16.70;68.90
59651;DHT22;45954;49.768;8.636;2023-03-16T15:17:56;16.60;69.20
59651;DHT22;45954;49.768;8.636;2023-03-16T15:20:27;17.10;68.80
59651;DHT22;45954;49.768;8.636;2023-03-16T15:22:57;17.30;67.50
59651;DHT22;45954;49.768;8.636;2023-03-16T15:25:32;17.40;67.80
59651;DHT22;45954;49.768;8.636;2023-03-16T15:28:19;17.20;67.80
59651;DHT22;45954;49.768;8.636;2023-03-16T15:30:50;17.20;68.20
59651;DHT22;45954;49.768;8.636;2023-03-16T15:33:17;17.20;68.50
59651;DHT22;45954;49.768;8.636;2023-03-16T15:35:45;17.00;67.60
59651;DHT22;45954;49.768;8.636;2023-03-16T15:38:20;16.80;68.00
59651;DHT22;45954;49.768;8.636;2023-03-16T15:40:51;15.90;69.20
59651;DHT22;45954;49.768;8.636;2023-03-16T15:43:23;16.10;70.60
59651;DHT22;45954;49.768;8.636;2023-03-16T15:45:52;16.50;70.00
59651;DHT22;45954;49.768;8.636;2023-03-16T15:48:19;16.60;69.50
59651;DHT22;45954;49.768;8.636;2023-03-16T15:50:59;16.60;68.60
59651;DHT22;45954;49.768;8.636;2023-03-16T15:53:31;16.00;70.60
59651;DHT22;45954;49.768;8.636;2023-03-16T15:56:03;16.20;72.20
59651;DHT22;45954;49.768;8.636;2023-03-16T15:58:33;16.30;71.40
59651;DHT22;45954;49.768;8.636;2023-03-16T16:01:02;16.40;69.30
59651;DHT22;45954;49.768;8.636;2023-03-16T16:03:28;16.30;68.40
59651;DHT22;45954;49.768;8.636;2023-03-16T16:05:54;16.00;70.70
59651;DHT22;45954;49.768;8.636;2023-03-16T16:08:21;16.00;71.00
59651;DHT22;45954;49.768;8.636;2023-03-16T16:10:48;15.90;70.00
59651;DHT22;45954;49.768;8.636;2023-03-16T16:13:41;15.90;70.50
59651;DHT22;45954;49.768;8.636;2023-03-16T16:16:18;15.50;70.00
59651;DHT22;45954;49.768;8.636;2023-03-16T16:18:45;15.30;72.00
59651;DHT22;45954;49.768;8.636;2023-03-16T16:21:24;15.30;72.30
59651;DHT22;45954;49.768;8.636;2023-03-16T16:23:54;15.00;74.00
59651;DHT22;45954;49.768;8.636;2023-03-16T16:26:30;15.00;73.20
59651;DHT22;45954;49.768;8.636;2023-03-16T16:29:14;14.90;74.10
59651;DHT22;45954;49.768;8.636;2023-03-16T16:31:46;14.90;75.20
59651;DHT22;45954;49.768;8.636;2023-03-16T16:34:18;14.90;75.30
59651;DHT22;45954;49.768;8.636;2023-03-16T16:36:53;14.60;77.00
59651;DHT22;45954;49.768;8.636;2023-03-16T16:39:19;14.50;77.50
59651;DHT22;45954;49.768;8.636;2023-03-16T16:41:49;14.40;79.00
59651;DHT22;45954;49.768;8.636;2023-03-16T16:44:22;14.30;79.10
59651;DHT22;45954;49.768;8.636;2023-03-16T16:46:51;14.20;79.70
59651;DHT22;45954;49.768;8.636;2023-03-16T16:49:25;14.10;80.00
59651;DHT22;45954;49.768;8.636;2023-03-16T16:51:52;13.90;81.00
59651;DHT22;45954;49.768;8.636;2023-03-16T16:54:27;13.80;81.70
59651;DHT22;45954;49.768;8.636;2023-03-16T16:56:56;13.70;83.20
59651;DHT22;45954;49.768;8.636;2023-03-16T16:59:30;13.60;83.20
59651;DHT22;45954;49.768;8.636;2023-03-16T17:02:00;13.60;83.40
59651;DHT22;45954;49.768;8.636;2023-03-16T17:04:28;13.40;85.00
59651;DHT22;45954;49.768;8.636;2023-03-16T17:06:57;13.20;86.30